createdAt,value
2023-03-03T00:01:30.673Z,10.63
2023-03-03T00:04:01.084Z,10.70
2023-03-03T00:06:30.593Z,10.00
2023-03-03T00:08:59.168Z,10.23
2023-03-03T00:11:27.341Z,10.67
2023-03-03T00:13:58.134Z,10.70
2023-03-03T00:16:29.235Z,10.70
2023-03-03T00:18:58.259Z,10.37
2023-03-03T00:21:30.702Z,10.20
2023-03-03T00:24:13.524Z,9.67
2023-03-03T00:26:43.847Z,9.93
2023-03-03T00:29:35.943Z,10.53
2023-03-03T00:32:25.540Z,10.90
2023-03-03T00:34:55.012Z,9.27
2023-03-03T00:37:30.204Z,9.83
2023-03-03T00:40:23.916Z,9.97
2023-03-03T00:42:54.431Z,10.13
2023-03-03T00:45:29.227Z,10.67
2023-03-03T00:47:58.001Z,9.73
2023-03-03T00:50:32.890Z,9.67
2023-03-03T00:53:07.953Z,10.27
2023-03-03T00:55:36.633Z,10.70
2023-03-03T00:58:05.733Z,13.83
2023-03-03T01:00:39.697Z,13.13
2023-03-03T01:03:14.088Z,12.77
2023-03-03T01:05:42.713Z,12.43
2023-03-03T01:08:12.433Z,10.60
2023-03-03T01:10:44.019Z,11.40
2023-03-03T01:13:12.831Z,12.20
2023-03-03T01:15:42.084Z,11.00
2023-03-03T01:18:11.609Z,11.40
2023-03-03T01:20:40.309Z,11.63
2023-03-03T01:23:08.850Z,10.23
2023-03-03T01:25:38.610Z,9.07
2023-03-03T01:28:07.211Z,9.27
2023-03-03T01:30:35.749Z,9.90
2023-03-03T01:33:03.843Z,9.70
2023-03-03T01:35:32.093Z,9.77
2023-03-03T01:38:00.486Z,9.30
2023-03-03T01:40:32.296Z,8.80
2023-03-03T01:43:02.231Z,9.10
2023-03-03T01:45:32.684Z,8.83
2023-03-03T01:48:04.485Z,10.03
2023-03-03T01:50:41.111Z,9.60
2023-03-03T01:53:14.874Z,11.23
2023-03-03T01:55:43.913Z,8.87
2023-03-03T01:58:18.056Z,9.50
2023-03-03T02:00:50.741Z,9.80
2023-03-03T02:03:21.847Z,9.80
2023-03-03T02:05:50.961Z,9.43
2023-03-03T02:08:23.783Z,8.93
2023-03-03T02:10:52.858Z,9.03
2023-03-03T02:13:22.388Z,8.67
2023-03-03T02:15:50.707Z,10.20
2023-03-03T02:18:22.184Z,9.53
2023-03-03T02:20:58.881Z,9.80
2023-03-03T02:23:35.603Z,10.40
2023-03-03T02:26:08.469Z,10.63
2023-03-03T02:28:39.146Z,10.83
2023-03-03T02:31:13.465Z,11.33
2023-03-03T02:33:43.480Z,12.33
2023-03-03T02:36:14.851Z,11.30
2023-03-03T02:38:49.609Z,11.57
2023-03-03T02:41:30.300Z,10.80
2023-03-03T02:44:02.416Z,11.77
2023-03-03T02:46:35.439Z,11.10
2023-03-03T02:49:04.451Z,11.57
2023-03-03T02:51:32.997Z,10.63
2023-03-03T02:54:01.213Z,11.43
2023-03-03T02:56:32.814Z,11.63
2023-03-03T02:59:01.462Z,9.90
2023-03-03T03:01:37.112Z,11.73
2023-03-03T03:04:10.014Z,11.00
2023-03-03T03:06:40.219Z,10.60
2023-03-03T03:09:10.447Z,10.57
2023-03-03T03:11:40.201Z,11.27
2023-03-03T03:14:11.598Z,10.23
2023-03-03T03:16:41.240Z,10.37
2023-03-03T03:19:09.973Z,10.70
2023-03-03T03:21:39.290Z,11.83
2023-03-03T03:24:08.991Z,11.90
2023-03-03T03:26:40.805Z,10.87
2023-03-03T03:29:09.213Z,10.53
2023-03-03T03:31:38.004Z,12.63
2023-03-03T03:34:06.423Z,11.23
2023-03-03T03:36:35.098Z,11.83
2023-03-03T03:39:06.706Z,11.07
2023-03-03T03:41:37.464Z,11.47
2023-03-03T03:44:07.313Z,12.23
2023-03-03T03:46:35.499Z,11.23
2023-03-03T03:49:03.674Z,12.00
2023-03-03T03:51:31.852Z,10.97
2023-03-03T03:54:00.653Z,10.20
2023-03-03T03:56:28.879Z,11.17
2023-03-03T03:59:00.730Z,11.20
2023-03-03T04:01:30.509Z,11.27
2023-03-03T04:03:59.329Z,10.33
2023-03-03T04:06:27.530Z,10.83
2023-03-03T04:08:56.580Z,11.57
2023-03-03T04:11:25.463Z,12.13
2023-03-03T04:13:53.619Z,12.77
2023-03-03T04:16:22.435Z,12.00
2023-03-03T04:18:52.002Z,11.83
2023-03-03T04:21:21.689Z,11.73
2023-03-03T04:23:51.296Z,11.87
2023-03-03T04:26:19.441Z,13.20
2023-03-03T04:28:48.563Z,12.03
2023-03-03T04:31:17.247Z,12.10
2023-03-03T04:33:45.469Z,12.77
2023-03-03T04:36:15.016Z,13.03
2023-03-03T04:38:43.193Z,12.23
2023-03-03T04:41:11.295Z,11.83
2023-03-03T04:43:40.600Z,12.50
2023-03-03T04:46:09.899Z,12.73
2023-03-03T04:48:39.606Z,12.63
2023-03-03T04:51:07.790Z,13.60
2023-03-03T04:53:39.197Z,12.83
2023-03-03T04:56:09.634Z,12.93
2023-03-03T04:58:38.180Z,12.90
2023-03-03T05:01:06.686Z,12.37
2023-03-03T05:03:35.915Z,14.17
2023-03-03T05:06:04.049Z,14.87
2023-03-03T05:08:32.221Z,17.03
2023-03-03T05:11:02.429Z,16.27
2023-03-03T05:13:31.847Z,15.50
2023-03-03T05:16:00.012Z,14.10
2023-03-03T05:18:28.886Z,14.10
2023-03-03T05:20:57.000Z,12.13
2023-03-03T05:23:25.232Z,13.33
2023-03-03T05:25:53.422Z,13.13
2023-03-03T05:28:22.867Z,13.53
2023-03-03T05:30:51.338Z,13.83
2023-03-03T05:33:19.490Z,14.00
2023-03-03T05:35:47.912Z,12.23
2023-03-03T05:38:16.048Z,14.43
2023-03-03T05:40:44.329Z,12.87
2023-03-03T05:43:12.408Z,13.00
2023-03-03T05:45:41.939Z,12.60
2023-03-03T05:48:11.774Z,13.07
2023-03-03T05:50:40.630Z,13.07
2023-03-03T05:53:08.875Z,12.90
2023-03-03T05:55:37.068Z,13.73
2023-03-03T05:58:05.234Z,13.40
2023-03-03T06:00:33.422Z,13.90
2023-03-03T06:03:03.065Z,13.87
2023-03-03T06:05:31.278Z,14.03
2023-03-03T06:08:00.005Z,12.93
2023-03-03T06:10:28.431Z,14.87
2023-03-03T06:12:59.746Z,15.07
2023-03-03T06:15:28.128Z,14.00
2023-03-03T06:17:56.312Z,14.67
2023-03-03T06:20:25.852Z,14.20
2023-03-03T06:22:54.173Z,14.60
2023-03-03T06:25:22.364Z,15.20
2023-03-03T06:27:50.437Z,14.87
2023-03-03T06:30:19.060Z,14.90
2023-03-03T06:32:47.367Z,15.87
2023-03-03T06:35:15.485Z,14.73
2023-03-03T06:37:44.947Z,15.87
2023-03-03T06:40:15.166Z,15.30
2023-03-03T06:42:43.230Z,16.33
2023-03-03T06:45:12.036Z,16.43
2023-03-03T06:47:40.085Z,15.30
2023-03-03T06:50:09.062Z,15.43
2023-03-03T06:52:37.196Z,15.37
2023-03-03T06:55:14.415Z,14.87
2023-03-03T06:57:42.620Z,15.17
2023-03-03T07:00:18.553Z,16.30
2023-03-03T07:02:46.971Z,15.63
2023-03-03T07:05:17.801Z,16.50
2023-03-03T07:07:46.039Z,15.57
2023-03-03T07:10:23.333Z,15.70
2023-03-03T07:12:51.628Z,15.07
2023-03-03T07:15:24.486Z,15.10
2023-03-03T07:17:58.364Z,16.83
2023-03-03T07:20:32.231Z,16.60
2023-03-03T07:23:00.541Z,16.27
2023-03-03T07:25:33.496Z,15.83
2023-03-03T07:28:13.218Z,15.53
2023-03-03T07:30:43.523Z,15.30
2023-03-03T07:33:25.053Z,15.13
2023-03-03T07:35:55.048Z,14.63
2023-03-03T07:38:30.886Z,15.50
2023-03-03T07:41:02.862Z,14.87
2023-03-03T07:43:44.857Z,13.97
2023-03-03T07:46:24.828Z,15.77
2023-03-03T07:48:54.446Z,17.67
2023-03-03T07:51:27.740Z,23.00
2023-03-03T07:54:02.005Z,17.70
2023-03-03T07:56:36.318Z,15.23
2023-03-03T07:59:17.425Z,13.77
2023-03-03T08:01:49.499Z,15.17
2023-03-03T08:04:21.094Z,15.17
2023-03-03T08:06:53.783Z,13.83
2023-03-03T08:09:31.660Z,13.73
2023-03-03T08:12:14.625Z,13.60
2023-03-03T08:14:42.838Z,13.43
2023-03-03T08:17:18.634Z,12.53
2023-03-03T08:19:46.900Z,13.57
2023-03-03T08:22:18.965Z,12.53
2023-03-03T08:24:47.163Z,13.20
2023-03-03T08:27:16.636Z,13.77
2023-03-03T08:29:45.344Z,13.20
2023-03-03T08:32:14.736Z,13.33
2023-03-03T08:34:42.919Z,13.23
2023-03-03T08:37:11.037Z,12.37
2023-03-03T08:39:40.175Z,12.73
2023-03-03T08:42:08.289Z,10.90
2023-03-03T08:44:37.817Z,11.57
2023-03-03T08:47:06.026Z,12.83
2023-03-03T08:49:34.150Z,12.23
2023-03-03T08:52:02.261Z,11.23
2023-03-03T08:54:30.634Z,12.50
2023-03-03T08:56:58.772Z,11.63
2023-03-03T08:59:26.949Z,12.23
2023-03-03T09:01:56.673Z,13.17
2023-03-03T09:04:24.846Z,11.63
2023-03-03T09:06:53.038Z,12.93
2023-03-03T09:09:21.164Z,12.30
2023-03-03T09:11:49.635Z,11.60
2023-03-03T09:14:21.025Z,11.00
2023-03-03T09:16:52.816Z,11.97
2023-03-03T09:19:29.625Z,10.07
2023-03-03T09:22:02.828Z,11.43
2023-03-03T09:24:32.625Z,10.67
2023-03-03T09:27:00.955Z,11.43
2023-03-03T09:29:30.596Z,10.40
2023-03-03T09:32:01.229Z,9.63
2023-03-03T09:34:41.104Z,10.48
2023-03-03T09:37:23.088Z,9.80
2023-03-03T09:39:53.003Z,10.55
2023-03-03T09:42:48.009Z,9.32
2023-03-03T09:45:50.498Z,11.20
2023-03-03T09:48:43.609Z,9.77
2023-03-03T09:51:31.842Z,8.95
2023-03-03T09:54:16.897Z,7.68
2023-03-03T09:56:50.492Z,7.95
2023-03-03T09:59:36.572Z,8.23
2023-03-03T10:02:32.888Z,7.38
2023-03-03T10:05:14.609Z,9.07
2023-03-03T10:07:56.506Z,8.35
2023-03-03T10:10:45.276Z,7.35
2023-03-03T10:13:30.765Z,7.70
2023-03-03T10:16:17.647Z,7.72
2023-03-03T10:18:53.031Z,8.60
2023-03-03T10:21:26.283Z,7.60
2023-03-03T10:23:59.340Z,6.85
2023-03-03T10:27:12.521Z,7.70
2023-03-03T10:29:51.983Z,6.78
2023-03-03T10:32:45.724Z,7.05
2023-03-03T10:35:26.296Z,6.65
2023-03-03T10:38:14.929Z,6.25
2023-03-03T10:40:52.224Z,6.40
2023-03-03T10:43:39.855Z,6.25
2023-03-03T10:46:32.458Z,6.45
2023-03-03T10:49:39.442Z,4.78
2023-03-03T10:52:20.811Z,5.05
2023-03-03T10:55:05.578Z,5.25
2023-03-03T10:57:42.717Z,6.15
2023-03-03T11:00:23.838Z,5.72
2023-03-03T11:03:20.547Z,7.68
2023-03-03T11:05:56.171Z,7.20
2023-03-03T11:08:31.245Z,6.75
2023-03-03T11:11:09.438Z,6.78
2023-03-03T11:13:48.347Z,6.53
2023-03-03T11:16:36.427Z,6.43
2023-03-03T11:19:14.176Z,6.38
2023-03-03T11:21:48.668Z,6.10
2023-03-03T11:24:39.040Z,6.78
2023-03-03T11:27:18.853Z,6.50
2023-03-03T11:29:59.756Z,6.38
2023-03-03T11:32:37.657Z,6.80
2023-03-03T11:35:23.374Z,5.90
2023-03-03T11:38:03.348Z,5.85
2023-03-03T11:40:37.231Z,6.35
2023-03-03T11:43:14.198Z,6.10
2023-03-03T11:45:52.082Z,6.55
2023-03-03T11:48:27.522Z,7.40
2023-03-03T11:51:02.084Z,6.30
2023-03-03T11:54:05.592Z,6.72
2023-03-03T11:56:39.815Z,6.60
2023-03-03T11:59:22.564Z,6.30
2023-03-03T12:01:55.954Z,5.70
2023-03-03T12:04:31.073Z,6.17
2023-03-03T12:07:19.841Z,6.50
2023-03-03T12:09:59.622Z,6.27
2023-03-03T12:12:34.435Z,6.10
2023-03-03T12:15:10.473Z,6.03
2023-03-03T12:17:58.189Z,5.83
2023-03-03T12:20:34.868Z,6.33
2023-03-03T12:23:14.348Z,6.03
2023-03-03T12:25:45.186Z,6.13
2023-03-03T12:28:19.117Z,5.63
2023-03-03T12:31:11.147Z,6.37
2023-03-03T12:33:54.091Z,6.15
2023-03-03T12:37:05.497Z,6.18
2023-03-03T12:39:53.688Z,5.53
2023-03-03T12:42:32.049Z,6.15
2023-03-03T12:45:15.764Z,5.25
2023-03-03T12:47:51.035Z,5.72
2023-03-03T12:50:36.161Z,5.05
2023-03-03T12:53:19.723Z,5.30
2023-03-03T12:55:53.913Z,6.45
2023-03-03T12:58:33.646Z,5.90
2023-03-03T13:01:17.106Z,5.90
2023-03-03T13:03:56.180Z,5.82
2023-03-03T13:06:31.142Z,6.07
2023-03-03T13:09:13.931Z,6.90
2023-03-03T13:11:56.684Z,6.30
2023-03-03T13:14:34.521Z,6.45
2023-03-03T13:17:11.748Z,6.10
2023-03-03T13:19:45.116Z,6.80
2023-03-03T13:22:19.325Z,6.22
2023-03-03T13:25:00.697Z,6.53
2023-03-03T13:27:35.472Z,6.47
2023-03-03T13:30:09.981Z,7.93
2023-03-03T13:32:45.276Z,6.40
2023-03-03T13:35:27.493Z,7.75
2023-03-03T13:37:59.075Z,6.65
2023-03-03T13:40:32.670Z,6.82
2023-03-03T13:43:06.082Z,7.15
2023-03-03T13:45:43.456Z,7.25
2023-03-03T13:48:31.483Z,6.95
2023-03-03T13:51:05.662Z,7.77
2023-03-03T13:53:44.392Z,7.37
2023-03-03T13:56:28.878Z,6.50
2023-03-03T13:59:05.114Z,6.40
2023-03-03T14:01:44.091Z,7.13
2023-03-03T14:04:19.594Z,6.83
2023-03-03T14:06:56.555Z,6.77
2023-03-03T14:09:44.146Z,6.73
2023-03-03T14:12:23.230Z,6.77
2023-03-03T14:15:00.714Z,6.37
2023-03-03T14:17:37.326Z,7.20
2023-03-03T14:20:17.687Z,7.23
2023-03-03T14:22:52.556Z,6.50
2023-03-03T14:25:22.273Z,6.73
2023-03-03T14:28:10.822Z,7.13
2023-03-03T14:30:40.084Z,7.03
2023-03-03T14:33:22.188Z,7.57
2023-03-03T14:36:01.196Z,6.70
2023-03-03T14:38:41.373Z,7.30
2023-03-03T14:41:18.206Z,6.57
2023-03-03T14:43:57.891Z,7.43
2023-03-03T14:46:36.725Z,6.87
2023-03-03T14:49:07.986Z,6.67
2023-03-03T14:51:43.191Z,6.77
2023-03-03T14:54:22.455Z,6.77
2023-03-03T14:57:02.359Z,8.07
2023-03-03T14:59:31.957Z,6.53
2023-03-03T15:02:25.456Z,6.43
2023-03-03T15:05:15.197Z,6.17
2023-03-03T15:07:44.174Z,6.10
2023-03-03T15:10:13.691Z,5.70
2023-03-03T15:12:43.726Z,7.00
2023-03-03T15:15:20.410Z,5.87
2023-03-03T15:18:02.695Z,7.03
2023-03-03T15:20:44.560Z,7.00
2023-03-03T15:23:40.374Z,6.33
2023-03-03T15:26:13.889Z,6.43
2023-03-03T15:28:55.622Z,6.23
2023-03-03T15:31:32.649Z,6.03
2023-03-03T15:34:07.831Z,5.73
2023-03-03T15:36:45.710Z,7.67
2023-03-03T15:39:21.728Z,7.17
2023-03-03T15:42:04.138Z,7.00
2023-03-03T15:44:47.716Z,7.13
2023-03-03T15:47:33.797Z,6.87
2023-03-03T15:50:22.251Z,7.47
2023-03-03T15:53:04.534Z,7.00
2023-03-03T15:55:43.148Z,7.33
2023-03-03T15:58:42.944Z,6.13
2023-03-03T16:01:24.479Z,7.03
2023-03-03T16:03:59.606Z,6.27
2023-03-03T16:06:41.220Z,6.60
2023-03-03T16:09:21.267Z,6.87
2023-03-03T16:11:56.220Z,7.33
2023-03-03T16:14:42.944Z,6.93
2023-03-03T16:17:23.804Z,6.40
2023-03-03T16:20:03.483Z,7.50
2023-03-03T16:22:55.966Z,7.23
2023-03-03T16:25:59.985Z,6.57
2023-03-03T16:28:42.013Z,6.63
2023-03-03T16:31:18.480Z,6.83
2023-03-03T16:33:56.958Z,7.90
2023-03-03T16:36:33.901Z,7.30
2023-03-03T16:39:07.780Z,7.47
2023-03-03T16:41:46.201Z,7.17
2023-03-03T16:44:32.496Z,7.40
2023-03-03T16:47:15.430Z,7.40
2023-03-03T16:49:53.959Z,8.40
2023-03-03T16:52:30.337Z,8.00
2023-03-03T16:55:05.844Z,7.00
2023-03-03T16:57:44.329Z,7.90
2023-03-03T17:00:19.871Z,8.23
2023-03-03T17:03:14.971Z,7.20
2023-03-03T17:05:51.557Z,7.20
2023-03-03T17:08:37.739Z,6.90
2023-03-03T17:11:14.155Z,7.00
2023-03-03T17:14:04.460Z,7.20
2023-03-03T17:16:51.423Z,8.00
2023-03-03T17:19:31.472Z,7.03
2023-03-03T17:22:13.961Z,7.13
2023-03-03T17:24:56.342Z,8.33
2023-03-03T17:27:36.190Z,7.77
2023-03-03T17:30:13.113Z,8.27
2023-03-03T17:33:02.172Z,8.67
2023-03-03T17:35:46.137Z,11.07
2023-03-03T17:38:28.117Z,9.30
2023-03-03T17:41:04.389Z,10.50
2023-03-03T17:43:41.849Z,9.03
2023-03-03T17:46:19.947Z,10.60
2023-03-03T17:49:30.214Z,9.43
2023-03-03T17:52:15.990Z,9.73
2023-03-03T17:55:12.894Z,9.50
2023-03-03T17:57:54.270Z,8.27
2023-03-03T18:00:36.966Z,9.23
2023-03-03T18:03:52.365Z,9.23
2023-03-03T18:06:57.114Z,9.53
2023-03-03T18:09:47.660Z,10.00
2023-03-03T18:12:30.880Z,10.30
2023-03-03T18:15:37.297Z,10.63
2023-03-03T18:18:27.047Z,9.23
2023-03-03T18:21:04.542Z,10.07
2023-03-03T18:23:43.390Z,9.73
2023-03-03T18:26:35.728Z,9.97
2023-03-03T18:29:15.212Z,11.90
2023-03-03T18:32:04.102Z,11.77
2023-03-03T18:34:39.099Z,11.17
2023-03-03T18:37:33.575Z,11.63
2023-03-03T18:40:33.221Z,11.77
2023-03-03T18:43:41.236Z,13.37
2023-03-03T18:46:34.177Z,13.57
2023-03-03T18:49:06.310Z,13.70
2023-03-03T18:52:16.080Z,13.83
2023-03-03T18:55:02.318Z,14.83
2023-03-03T18:57:33.778Z,13.97
2023-03-03T19:00:17.209Z,16.83
2023-03-03T19:02:57.262Z,15.40
2023-03-03T19:05:29.202Z,15.20
2023-03-03T19:08:07.357Z,15.43
2023-03-03T19:10:59.745Z,15.40
2023-03-03T19:13:48.509Z,15.50
2023-03-03T19:16:38.002Z,14.53
2023-03-03T19:19:15.809Z,15.87
2023-03-03T19:21:51.882Z,16.27
2023-03-03T19:24:35.317Z,16.50
2023-03-03T19:27:25.672Z,17.27
2023-03-03T19:30:24.820Z,17.37
2023-03-03T19:33:28.750Z,15.97
2023-03-03T19:36:22.578Z,14.27
2023-03-03T19:39:04.896Z,16.83
2023-03-03T19:41:51.222Z,15.60
2023-03-03T19:44:41.119Z,14.97
2023-03-03T19:47:23.410Z,14.17
2023-03-03T19:50:07.828Z,15.67
2023-03-03T19:52:43.632Z,14.30
2023-03-03T19:55:28.841Z,15.03
2023-03-03T19:58:10.632Z,15.20
2023-03-03T20:00:47.277Z,14.90
2023-03-03T20:03:43.391Z,16.00
2023-03-03T20:06:23.887Z,14.97
2023-03-03T20:09:05.835Z,16.03
2023-03-03T20:11:51.926Z,16.97
2023-03-03T20:14:44.788Z,14.57
2023-03-03T20:17:45.254Z,13.53
2023-03-03T20:20:35.525Z,13.70
2023-03-03T20:23:26.300Z,15.73
2023-03-03T20:26:04.822Z,15.10
2023-03-03T20:28:57.121Z,16.70
2023-03-03T20:31:36.518Z,15.63
2023-03-03T20:34:16.505Z,19.77
2023-03-03T20:36:58.050Z,19.00
2023-03-03T20:39:42.680Z,17.73
2023-03-03T20:42:31.222Z,18.63
2023-03-03T20:45:15.613Z,19.70
2023-03-03T20:47:57.329Z,19.43
2023-03-03T20:50:33.335Z,18.17
2023-03-03T20:53:14.278Z,18.17
2023-03-03T20:55:56.841Z,16.33
2023-03-03T20:58:38.767Z,17.07
2023-03-03T21:01:09.626Z,15.60
2023-03-03T21:03:42.698Z,15.43
2023-03-03T21:06:16.474Z,14.70
2023-03-03T21:08:50.312Z,14.63
2023-03-03T21:11:25.296Z,14.60
2023-03-03T21:13:57.029Z,13.97
2023-03-03T21:16:36.025Z,14.07
2023-03-03T21:19:07.683Z,15.23
2023-03-03T21:21:39.310Z,14.13
2023-03-03T21:24:10.322Z,14.03
2023-03-03T21:26:51.061Z,12.83
2023-03-03T21:29:26.598Z,14.20
2023-03-03T21:31:57.878Z,13.40
2023-03-03T21:34:29.768Z,13.63
2023-03-03T21:36:59.899Z,14.10
2023-03-03T21:39:34.135Z,13.17
2023-03-03T21:42:04.362Z,14.23
2023-03-03T21:44:40.389Z,14.10
2023-03-03T21:47:10.489Z,14.23
2023-03-03T21:49:43.611Z,12.80
2023-03-03T21:52:13.189Z,13.63
2023-03-03T21:54:42.306Z,13.20
2023-03-03T21:57:11.144Z,13.73
2023-03-03T21:59:40.777Z,13.80
2023-03-03T22:02:10.129Z,13.60
2023-03-03T22:04:39.272Z,13.87
2023-03-03T22:07:07.627Z,14.87
2023-03-03T22:09:36.140Z,15.83
2023-03-03T22:12:04.828Z,14.40
2023-03-03T22:14:34.305Z,13.70
2023-03-03T22:17:04.513Z,13.57
2023-03-03T22:19:34.322Z,14.70
2023-03-03T22:22:02.502Z,13.07
2023-03-03T22:24:30.726Z,15.70
2023-03-03T22:26:58.982Z,14.50
2023-03-03T22:29:27.453Z,13.97
2023-03-03T22:31:55.914Z,13.70
2023-03-03T22:34:25.974Z,13.40
2023-03-03T22:36:54.144Z,13.67
2023-03-03T22:39:22.307Z,13.30
2023-03-03T22:41:50.434Z,13.63
2023-03-03T22:44:18.610Z,15.00
2023-03-03T22:46:46.793Z,13.70
2023-03-03T22:49:14.941Z,14.27
2023-03-03T22:51:44.442Z,14.00
2023-03-03T22:54:12.622Z,14.50
2023-03-03T22:56:40.760Z,14.67
2023-03-03T22:59:08.884Z,14.20
2023-03-03T23:01:36.994Z,14.83
2023-03-03T23:04:05.417Z,15.20
2023-03-03T23:06:33.551Z,14.10
2023-03-03T23:09:03.045Z,13.50
2023-03-03T23:11:31.150Z,13.83
2023-03-03T23:13:59.282Z,13.73
2023-03-03T23:16:27.549Z,14.77
2023-03-03T23:18:55.739Z,14.03
2023-03-03T23:21:23.883Z,14.87
2023-03-03T23:23:51.942Z,13.63
2023-03-03T23:26:21.414Z,13.50
2023-03-03T23:28:49.524Z,14.63
2023-03-03T23:31:17.766Z,13.67
2023-03-03T23:33:45.955Z,13.17
2023-03-03T23:36:14.035Z,14.63
2023-03-03T23:38:43.256Z,13.23
2023-03-03T23:41:11.519Z,14.70
2023-03-03T23:43:40.993Z,14.43
2023-03-03T23:46:09.140Z,15.13
2023-03-03T23:48:37.317Z,13.87
2023-03-03T23:51:05.918Z,14.77
2023-03-03T23:53:34.084Z,13.93
2023-03-03T23:56:02.229Z,14.60
2023-03-03T23:58:30.380Z,14.43
